createdAt,value
2018-09-11T00:02:24.956Z,0.50
2018-09-11T00:05:24.181Z,0.43
2018-09-11T00:08:25.353Z,0.40
2018-09-11T00:11:25.247Z,0.27
2018-09-11T00:14:24.669Z,0.50
2018-09-11T00:17:23.681Z,0.40
2018-09-11T00:20:22.913Z,0.20
2018-09-11T00:23:23.825Z,0.63
2018-09-11T00:26:23.383Z,0.50
2018-09-11T00:29:22.913Z,0.40
2018-09-11T00:32:23.935Z,0.47
2018-09-11T00:35:23.385Z,0.40
2018-09-11T00:38:23.867Z,0.50
2018-09-11T00:41:23.991Z,0.53
2018-09-11T00:44:23.889Z,0.43
2018-09-11T00:47:25.008Z,0.60
2018-09-11T00:50:24.783Z,0.40
2018-09-11T00:53:23.685Z,0.60
2018-09-11T00:56:24.179Z,0.40
2018-09-11T00:59:25.706Z,0.50
2018-09-11T01:02:25.152Z,0.30
2018-09-11T01:05:25.419Z,0.30
2018-09-11T01:08:24.859Z,0.50
2018-09-11T01:11:24.016Z,0.20
2018-09-11T01:14:24.082Z,0.57
2018-09-11T01:17:24.868Z,0.40
2018-09-11T01:20:24.721Z,0.30
2018-09-11T01:23:25.627Z,0.60
2018-09-11T01:26:25.167Z,0.50
2018-09-11T01:29:35.166Z,0.47
2018-09-11T01:32:35.442Z,0.63
2018-09-11T01:35:38.390Z,0.40
2018-09-11T01:38:36.899Z,0.40
2018-09-11T01:41:36.906Z,0.50
2018-09-11T01:44:37.812Z,0.50
2018-09-11T01:47:39.301Z,0.37
2018-09-11T01:50:39.410Z,0.30
2018-09-11T01:53:39.396Z,0.50
2018-09-11T01:56:40.384Z,0.70
2018-09-11T01:59:41.647Z,0.37
2018-09-11T02:02:41.589Z,0.30
2018-09-11T02:05:42.685Z,0.40
2018-09-11T02:08:44.019Z,0.40
2018-09-11T02:11:45.527Z,0.33
2018-09-11T02:14:45.608Z,0.40
2018-09-11T02:17:45.888Z,0.60
2018-09-11T02:20:46.372Z,0.30
2018-09-11T02:23:47.072Z,0.40
2018-09-11T02:26:46.931Z,0.40
2018-09-11T02:29:48.049Z,0.33
2018-09-11T02:32:48.949Z,0.20
2018-09-11T02:35:50.946Z,0.40
2018-09-11T02:38:50.564Z,0.57
2018-09-11T02:41:49.575Z,0.20
2018-09-11T02:44:51.947Z,0.30
2018-09-11T02:47:52.015Z,0.23
2018-09-11T02:50:51.035Z,0.60
2018-09-11T02:53:51.474Z,0.40
2018-09-11T02:56:50.946Z,0.30
2018-09-11T02:59:50.908Z,0.43
2018-09-11T03:02:51.124Z,0.60
2018-09-11T03:05:50.878Z,0.50
2018-09-11T03:08:52.305Z,0.47
2018-09-11T03:11:54.040Z,0.60
2018-09-11T03:14:54.514Z,0.40
2018-09-11T03:17:54.098Z,0.50
2018-09-11T03:20:53.520Z,0.40
2018-09-11T03:23:53.272Z,0.50
2018-09-11T03:26:52.875Z,0.40
2018-09-11T03:29:52.250Z,0.47
2018-09-11T03:32:52.852Z,0.23
2018-09-11T03:35:52.288Z,0.30
2018-09-11T03:38:52.054Z,0.40
2018-09-11T03:41:51.590Z,0.60
2018-09-11T03:44:50.936Z,0.30
2018-09-11T03:47:51.938Z,0.70
2018-09-11T03:50:52.134Z,0.47
2018-09-11T03:53:52.292Z,0.30
2018-09-11T03:56:51.311Z,0.30
2018-09-11T03:59:51.172Z,0.37
2018-09-11T04:02:53.958Z,0.23
2018-09-11T04:05:54.246Z,0.40
2018-09-11T04:08:54.906Z,0.50
2018-09-11T04:11:54.384Z,0.43
2018-09-11T04:14:54.440Z,0.30
2018-09-11T04:17:54.302Z,0.37
2018-09-11T04:20:56.262Z,0.43
2018-09-11T04:23:56.130Z,0.33
2018-09-11T04:26:55.136Z,0.20
2018-09-11T04:29:56.458Z,0.37
2018-09-11T04:32:56.124Z,0.50
2018-09-11T04:35:56.527Z,0.50
2018-09-11T04:38:55.624Z,0.30
2018-09-11T04:41:56.014Z,0.43
2018-09-11T04:44:55.684Z,0.40
2018-09-11T04:47:55.146Z,0.63
2018-09-11T04:50:57.362Z,0.47
2018-09-11T04:53:57.961Z,0.30
2018-09-11T04:56:57.729Z,0.33
2018-09-11T04:59:58.418Z,0.40
2018-09-11T05:02:57.643Z,0.40
2018-09-11T05:05:57.428Z,0.50
2018-09-11T05:08:58.404Z,0.60
2018-09-11T05:11:59.244Z,0.50
2018-09-11T05:14:59.798Z,0.60
2018-09-11T05:17:59.525Z,0.40
2018-09-11T05:20:59.514Z,0.70
2018-09-11T05:23:59.380Z,0.60
2018-09-11T05:27:00.850Z,0.40
2018-09-11T05:30:00.770Z,0.47
2018-09-11T05:33:01.393Z,0.20
2018-09-11T05:36:01.973Z,0.50
2018-09-11T05:39:02.280Z,0.50
2018-09-11T05:42:01.889Z,0.40
2018-09-11T05:45:02.595Z,0.40
2018-09-11T05:48:03.496Z,0.40
2018-09-11T05:51:02.729Z,0.67
2018-09-11T05:54:02.488Z,0.47
2018-09-11T05:57:02.024Z,0.33
2018-09-11T06:00:03.366Z,0.20
2018-09-11T06:03:04.059Z,0.23
2018-09-11T06:06:04.532Z,0.40
2018-09-11T06:09:05.017Z,0.47
2018-09-11T06:12:05.295Z,0.40
2018-09-11T06:15:05.156Z,0.33
2018-09-11T06:18:05.242Z,0.23
2018-09-11T06:21:05.449Z,0.50
2018-09-11T06:24:04.530Z,0.50
2018-09-11T06:27:05.448Z,0.53
2018-09-11T06:30:04.996Z,0.60
2018-09-11T06:33:05.374Z,0.40
2018-09-11T06:36:04.952Z,0.30
2018-09-11T06:39:05.625Z,0.50
2018-09-11T06:42:05.990Z,0.50
2018-09-11T06:45:07.220Z,0.50
2018-09-11T06:48:07.381Z,0.40
2018-09-11T06:51:07.034Z,0.47
2018-09-11T06:54:06.476Z,0.47
2018-09-11T06:57:07.348Z,0.50
2018-09-11T07:00:07.157Z,0.40
2018-09-11T07:03:07.730Z,0.57
2018-09-11T07:06:08.755Z,0.50
2018-09-11T07:09:09.329Z,0.30
2018-09-11T07:12:09.816Z,0.70
2018-09-11T07:15:10.512Z,0.30
2018-09-11T07:18:11.822Z,0.53
2018-09-11T07:21:11.699Z,0.60
2018-09-11T07:24:11.450Z,0.60
2018-09-11T07:27:11.533Z,0.43
2018-09-11T07:30:10.824Z,0.50
2018-09-11T07:33:12.562Z,0.43
2018-09-11T07:36:13.560Z,0.50
2018-09-11T07:39:14.830Z,0.40
2018-09-11T07:42:16.093Z,0.57
2018-09-11T07:45:15.385Z,0.50
2018-09-11T07:48:15.871Z,0.77
2018-09-11T07:51:15.076Z,0.67
2018-09-11T07:54:15.376Z,0.60
2018-09-11T07:57:14.582Z,0.40
2018-09-11T08:00:14.945Z,0.40
2018-09-11T08:03:14.628Z,0.80
2018-09-11T08:06:14.620Z,0.50
2018-09-11T08:09:14.912Z,0.33
2018-09-11T08:12:14.966Z,0.40
2018-09-11T08:15:15.869Z,0.60
2018-09-11T08:18:16.356Z,0.70
2018-09-11T08:21:16.302Z,0.80
2018-09-11T08:24:16.710Z,0.57
2018-09-11T08:27:16.505Z,0.70
2018-09-11T08:30:17.220Z,0.70
2018-09-11T08:33:17.088Z,0.60
2018-09-11T08:36:16.319Z,0.43
2018-09-11T08:39:16.960Z,0.50
2018-09-11T08:42:16.636Z,0.70
2018-09-11T08:45:17.564Z,0.70
2018-09-11T08:48:16.844Z,0.80
2018-09-11T08:51:21.510Z,0.80
2018-09-11T08:54:21.923Z,0.63
2018-09-11T08:57:22.077Z,0.60
2018-09-11T09:00:21.930Z,0.70
2018-09-11T09:03:23.065Z,0.90
2018-09-11T09:06:22.490Z,0.60
2018-09-11T09:09:22.834Z,0.70
2018-09-11T09:12:22.287Z,0.70
2018-09-11T09:15:21.229Z,0.60
2018-09-11T09:18:23.389Z,0.77
2018-09-11T09:21:22.621Z,0.70
2018-09-11T09:24:23.963Z,0.60
2018-09-11T09:27:23.659Z,0.70
2018-09-11T09:30:23.371Z,0.80
2018-09-11T09:33:24.361Z,0.80
2018-09-11T09:36:25.940Z,0.70
2018-09-11T09:39:26.593Z,0.60
2018-09-11T09:42:26.164Z,0.70
2018-09-11T09:45:27.175Z,0.70
2018-09-11T09:48:28.198Z,0.60
2018-09-11T09:51:28.091Z,0.70
2018-09-11T09:54:27.700Z,0.60
2018-09-11T09:57:27.701Z,0.70
2018-09-11T10:00:31.604Z,0.87
2018-09-11T10:03:31.562Z,0.63
2018-09-11T10:06:32.440Z,0.60
2018-09-11T10:09:32.506Z,0.73
2018-09-11T10:12:32.784Z,0.60
2018-09-11T10:15:33.629Z,0.50
2018-09-11T10:18:34.174Z,0.70
2018-09-11T10:21:33.518Z,1.00
2018-09-11T10:24:34.116Z,0.60
2018-09-11T10:27:36.103Z,0.90
2018-09-11T10:30:36.971Z,0.70
2018-09-11T10:33:36.022Z,1.30
2018-09-11T10:36:36.007Z,1.00
2018-09-11T10:39:35.376Z,0.90
2018-09-11T10:42:36.534Z,7.53
2018-09-11T10:45:36.639Z,7.10
2018-09-11T10:48:37.349Z,2.70
2018-09-11T10:51:38.855Z,2.30
2018-09-11T10:54:39.981Z,1.40
2018-09-11T10:57:39.592Z,1.60
2018-09-11T11:00:40.277Z,1.70
2018-09-11T11:03:39.718Z,1.30
2018-09-11T11:06:39.227Z,1.17
2018-09-11T11:09:39.406Z,1.43
2018-09-11T11:12:40.241Z,1.50
2018-09-11T11:15:40.728Z,1.20
2018-09-11T11:18:41.241Z,1.30
2018-09-11T11:21:40.443Z,1.40
2018-09-11T11:24:41.460Z,1.00
2018-09-11T11:27:41.424Z,1.00
2018-09-11T11:30:41.810Z,1.10
2018-09-11T11:33:42.339Z,0.90
2018-09-11T11:36:43.434Z,0.90
2018-09-11T11:39:42.946Z,0.80
2018-09-11T11:42:42.917Z,1.30
2018-09-11T11:45:43.292Z,1.17
2018-09-11T11:48:42.948Z,0.90
2018-09-11T11:51:42.814Z,0.90
2018-09-11T11:54:42.924Z,0.90
2018-09-11T11:57:44.621Z,1.07
2018-09-11T12:00:45.500Z,1.13
2018-09-11T12:03:45.394Z,1.20
2018-09-11T12:06:45.663Z,0.80
2018-09-11T12:09:44.892Z,0.97
2018-09-11T12:12:44.851Z,1.20
2018-09-11T12:15:45.319Z,1.13
2018-09-11T12:18:45.489Z,1.20
2018-09-11T12:21:45.170Z,1.00
2018-09-11T12:24:46.074Z,0.87
2018-09-11T12:27:46.558Z,1.00
2018-09-11T12:30:47.260Z,1.27
2018-09-11T12:33:48.788Z,1.20
2018-09-11T12:36:48.453Z,1.00
2018-09-11T12:39:47.477Z,0.83
2018-09-11T12:42:47.185Z,0.90
2018-09-11T12:45:47.989Z,1.40
2018-09-11T12:48:49.017Z,1.00
2018-09-11T12:51:48.994Z,1.00
2018-09-11T12:54:49.466Z,0.90
2018-09-11T12:57:49.136Z,1.20
2018-09-11T13:00:49.908Z,0.97
2018-09-11T13:03:49.523Z,1.20
2018-09-11T13:06:49.557Z,1.20
2018-09-11T13:09:50.789Z,1.30
2018-09-11T13:12:49.436Z,1.03
2018-09-11T13:15:49.362Z,0.93
2018-09-11T13:18:49.208Z,0.93
2018-09-11T13:21:50.221Z,0.90
2018-09-11T13:24:50.297Z,0.80
2018-09-11T13:27:50.796Z,0.90
2018-09-11T13:30:52.509Z,0.90
2018-09-11T13:33:52.699Z,0.90
2018-09-11T13:36:52.778Z,0.73
2018-09-11T13:39:53.383Z,1.07
2018-09-11T13:42:54.086Z,1.03
2018-09-11T13:45:53.754Z,0.90
2018-09-11T13:48:53.988Z,1.10
2018-09-11T13:51:56.026Z,1.03
2018-09-11T13:54:56.096Z,1.07
2018-09-11T13:57:56.372Z,0.87
2018-09-11T14:00:55.489Z,1.07
2018-09-11T14:03:55.877Z,0.70
2018-09-11T14:06:55.122Z,0.97
2018-09-11T14:09:54.784Z,1.10
2018-09-11T14:12:58.188Z,1.10
2018-09-11T14:15:59.100Z,1.00
2018-09-11T14:18:58.760Z,1.00
2018-09-11T14:21:59.648Z,1.10
2018-09-11T14:24:59.531Z,1.03
2018-09-11T14:28:00.963Z,0.90
2018-09-11T14:31:01.326Z,1.00
2018-09-11T14:34:01.801Z,1.10
2018-09-11T14:37:01.266Z,1.10
2018-09-11T14:40:01.460Z,0.77
2018-09-11T14:43:00.870Z,1.03
2018-09-11T14:46:00.219Z,0.80
2018-09-11T14:49:00.090Z,0.93
2018-09-11T14:52:00.666Z,0.93
2018-09-11T14:55:00.618Z,1.10
2018-09-11T14:58:00.061Z,1.17
2018-09-11T15:01:00.338Z,1.20
2018-09-11T15:04:00.946Z,0.90
2018-09-11T15:07:01.221Z,1.30
2018-09-11T15:10:00.706Z,1.07
2018-09-11T15:13:00.987Z,0.90
2018-09-11T15:16:00.418Z,1.10
2018-09-11T15:19:02.803Z,1.00
2018-09-11T15:22:05.446Z,0.90
2018-09-11T15:25:04.711Z,1.33
2018-09-11T15:28:04.622Z,1.10
2018-09-11T15:31:04.301Z,0.90
2018-09-11T15:34:05.060Z,1.10
2018-09-11T15:37:04.933Z,1.10
2018-09-11T15:40:04.132Z,1.00
2018-09-11T15:43:03.734Z,1.20
2018-09-11T15:46:04.498Z,1.03
2018-09-11T15:49:03.955Z,1.07
2018-09-11T15:52:03.520Z,1.10
2018-09-11T15:55:03.266Z,1.00
2018-09-11T15:58:02.426Z,0.93
2018-09-11T16:01:03.416Z,1.10
2018-09-11T16:04:03.676Z,1.10
2018-09-11T16:07:03.561Z,0.90
2018-09-11T16:10:04.441Z,1.07
2018-09-11T16:13:04.836Z,1.20
2018-09-11T16:16:04.302Z,0.90
2018-09-11T16:19:03.548Z,1.00
2018-09-11T16:22:04.019Z,0.67
2018-09-11T16:25:03.755Z,1.00
2018-09-11T16:28:02.771Z,0.97
2018-09-11T16:31:02.005Z,1.27
2018-09-11T16:34:02.285Z,1.10
2018-09-11T16:37:02.755Z,1.07
2018-09-11T16:40:03.176Z,1.10
2018-09-11T16:43:04.379Z,0.93
2018-09-11T16:46:04.600Z,1.13
2018-09-11T16:49:05.346Z,0.83
2018-09-11T16:52:05.077Z,0.60
2018-09-11T16:55:07.177Z,1.03
2018-09-11T16:58:06.743Z,0.90
2018-09-11T17:01:06.041Z,1.10
2018-09-11T17:04:07.161Z,0.87
2018-09-11T17:07:07.014Z,0.90
2018-09-11T17:10:07.410Z,0.80
2018-09-11T17:13:07.781Z,0.90
2018-09-11T17:16:08.478Z,1.20
2018-09-11T17:19:08.336Z,1.10
2018-09-11T17:22:09.007Z,0.90
2018-09-11T17:25:09.937Z,1.27
2018-09-11T17:28:11.062Z,0.90
2018-09-11T17:31:11.346Z,1.23
2018-09-11T17:34:12.247Z,1.00
2018-09-11T17:37:11.690Z,1.00
2018-09-11T17:40:12.175Z,0.83
2018-09-11T17:43:10.670Z,1.17
2018-09-11T17:46:10.005Z,0.97
2018-09-11T17:49:11.262Z,0.97
2018-09-11T17:52:10.721Z,1.20
2018-09-11T17:55:10.664Z,1.17
2018-09-11T17:58:12.011Z,1.13
2018-09-11T18:01:12.863Z,1.17
2018-09-11T18:04:14.138Z,1.23
2018-09-11T18:07:14.842Z,1.27
2018-09-11T18:10:14.646Z,1.20
2018-09-11T18:13:14.091Z,1.20
2018-09-11T18:16:13.642Z,1.10
2018-09-11T18:19:14.121Z,1.20
2018-09-11T18:22:14.811Z,1.27
2018-09-11T18:25:13.340Z,1.37
2018-09-11T18:28:13.927Z,1.13
2018-09-11T18:31:16.062Z,1.30
2018-09-11T18:34:16.060Z,1.40
2018-09-11T18:37:17.470Z,1.23
2018-09-11T18:40:17.559Z,1.50
2018-09-11T18:43:17.802Z,1.60
2018-09-11T18:46:17.817Z,1.37
2018-09-11T18:49:18.570Z,1.40
2018-09-11T18:52:19.065Z,1.33
2018-09-11T18:55:19.207Z,1.60
2018-09-11T18:58:18.571Z,1.50
2018-09-11T19:01:18.639Z,1.50
2018-09-11T19:04:18.707Z,1.50
2018-09-11T19:07:18.893Z,1.53
2018-09-11T19:10:19.681Z,1.70
2018-09-11T19:13:19.495Z,1.30
2018-09-11T19:16:19.204Z,1.60
2018-09-11T19:19:19.055Z,1.30
2018-09-11T19:22:19.349Z,1.60
2018-09-11T19:25:18.357Z,1.53
2018-09-11T19:28:18.012Z,1.70
2018-09-11T19:31:17.548Z,1.83
2018-09-11T19:34:18.364Z,1.60
2018-09-11T19:37:18.220Z,1.80
2018-09-11T19:40:19.046Z,1.53
2018-09-11T19:43:18.985Z,1.90
2018-09-11T19:46:19.303Z,1.70
2018-09-11T19:49:20.603Z,1.40
2018-09-11T19:52:22.045Z,1.53
2018-09-11T19:55:21.352Z,1.60
2018-09-11T19:58:20.599Z,1.87
2018-09-11T20:01:21.700Z,1.43
2018-09-11T20:04:21.256Z,2.07
2018-09-11T20:07:21.440Z,1.80
2018-09-11T20:10:23.296Z,1.60
2018-09-11T20:13:23.233Z,1.57
2018-09-11T20:16:22.918Z,1.80
2018-09-11T20:19:21.996Z,1.80
2018-09-11T20:22:23.651Z,1.53
2018-09-11T20:25:24.565Z,1.87
2018-09-11T20:28:23.995Z,1.40
2018-09-11T20:31:25.129Z,2.10
2018-09-11T20:34:24.776Z,2.30
2018-09-11T20:37:25.485Z,1.50
2018-09-11T20:40:25.015Z,1.90
2018-09-11T20:43:24.261Z,1.83
2018-09-11T20:46:25.469Z,1.70
2018-09-11T20:49:27.001Z,1.73
2018-09-11T20:52:26.484Z,2.00
2018-09-11T20:55:28.801Z,1.80
2018-09-11T20:58:28.385Z,1.83
2018-09-11T21:01:30.297Z,2.00
2018-09-11T21:04:31.515Z,1.60
2018-09-11T21:07:31.377Z,1.60
2018-09-11T21:10:32.712Z,1.53
2018-09-11T21:13:33.187Z,1.93
2018-09-11T21:16:32.221Z,1.90
2018-09-11T21:19:31.457Z,1.77
2018-09-11T21:22:31.430Z,1.60
2018-09-11T21:25:33.675Z,1.40
2018-09-11T21:28:33.953Z,1.90
2018-09-11T21:31:33.833Z,2.10
2018-09-11T21:34:32.420Z,2.03
2018-09-11T21:37:31.740Z,1.77
2018-09-11T21:40:32.145Z,1.80
2018-09-11T21:43:32.005Z,1.63
2018-09-11T21:46:31.555Z,1.97
2018-09-11T21:49:31.060Z,2.10
2018-09-11T21:52:29.825Z,1.63
2018-09-11T21:55:30.401Z,1.93
2018-09-11T21:58:31.723Z,1.90
2018-09-11T22:01:35.908Z,1.60
2018-09-11T22:04:36.078Z,1.77
2018-09-11T22:07:37.154Z,1.60
2018-09-11T22:10:37.013Z,1.70
2018-09-11T22:13:37.504Z,1.80
2018-09-11T22:16:37.372Z,1.97
2018-09-11T22:19:36.910Z,1.70
2018-09-11T22:22:36.456Z,1.70
2018-09-11T22:25:36.042Z,1.70
2018-09-11T22:28:36.202Z,1.87
2018-09-11T22:31:36.012Z,1.77
2018-09-11T22:34:35.808Z,2.10
2018-09-11T22:37:36.181Z,1.80
2018-09-11T22:40:35.620Z,1.63
2018-09-11T22:43:35.492Z,1.90
2018-09-11T22:46:35.255Z,1.90
2018-09-11T22:49:36.045Z,1.80
2018-09-11T22:52:35.067Z,1.77
2018-09-11T22:55:34.907Z,1.50
2018-09-11T22:58:35.208Z,1.77
2018-09-11T23:01:36.071Z,1.97
2018-09-11T23:04:37.027Z,1.80
2018-09-11T23:07:37.511Z,1.60
2018-09-11T23:10:36.525Z,1.87
2018-09-11T23:13:36.015Z,1.83
2018-09-11T23:16:36.872Z,1.80
2018-09-11T23:19:37.149Z,1.60
2018-09-11T23:22:37.023Z,1.97
2018-09-11T23:25:36.789Z,2.00
2018-09-11T23:28:36.596Z,1.60
2018-09-11T23:31:36.385Z,2.03
2018-09-11T23:34:38.973Z,1.87
2018-09-11T23:37:39.449Z,1.77
2018-09-11T23:40:39.320Z,1.83
2018-09-11T23:43:40.758Z,1.63
2018-09-11T23:46:42.792Z,1.70
2018-09-11T23:49:42.827Z,1.70
2018-09-11T23:52:43.883Z,1.83
2018-09-11T23:55:44.472Z,1.63
2018-09-11T23:58:43.845Z,1.83
